sensor_id;sensor_type;location;lat;lon;timestamp;pressure;altitude;pressure_sealevel;temperature;humidity
11499;BME280;5806;48.748;9.278;2023-03-23T00:01:15;99992.40;;;13.27;62.77
11499;BME280;5806;48.748;9.278;2023-03-23T00:03:47;99988.56;;;13.31;62.48
11499;BME280;5806;48.748;9.278;2023-03-23T00:06:16;99977.03;;;13.34;62.38
11499;BME280;5806;48.748;9.278;2023-03-23T00:08:46;99974.56;;;13.32;63.08
11499;BME280;5806;48.748;9.278;2023-03-23T00:11:16;99983.08;;;13.21;64.09
11499;BME280;5806;48.748;9.278;2023-03-23T00:13:46;99982.52;;;13.26;63.29
11499;BME280;5806;48.748;9.278;2023-03-23T00:16:16;99973.72;;;13.32;63.39
11499;BME280;5806;48.748;9.278;2023-03-23T00:18:48;99967.17;;;13.18;63.95
11499;BME280;5806;48.748;9.278;2023-03-23T00:21:18;99968.78;;;13.29;62.74
11499;BME280;5806;48.748;9.278;2023-03-23T00:23:46;99969.59;;;13.34;62.81
11499;BME280;5806;48.748;9.278;2023-03-23T00:26:14;99971.81;;;13.32;62.68
11499;BME280;5806;48.748;9.278;2023-03-23T00:28:41;99965.22;;;13.31;63.20
11499;BME280;5806;48.748;9.278;2023-03-23T00:31:10;99972.89;;;13.31;62.83
11499;BME280;5806;48.748;9.278;2023-03-23T00:33:39;99971.82;;;13.30;63.29
11499;BME280;5806;48.748;9.278;2023-03-23T00:36:11;99975.09;;;13.34;62.98
11499;BME280;5806;48.748;9.278;2023-03-23T00:38:40;99967.98;;;13.28;63.29
11499;BME280;5806;48.748;9.278;2023-03-23T00:41:08;99978.62;;;13.47;62.03
11499;BME280;5806;48.748;9.278;2023-03-23T00:43:37;99969.30;;;13.48;62.56
11499;BME280;5806;48.748;9.278;2023-03-23T00:46:05;99975.35;;;13.43;62.53
11499;BME280;5806;48.748;9.278;2023-03-23T00:48:35;99972.59;;;13.45;62.47
11499;BME280;5806;48.748;9.278;2023-03-23T00:51:05;99969.29;;;13.43;63.00
11499;BME280;5806;48.748;9.278;2023-03-23T00:53:34;99966.83;;;13.39;62.92
11499;BME280;5806;48.748;9.278;2023-03-23T00:56:01;99959.96;;;13.39;62.58
11499;BME280;5806;48.748;9.278;2023-03-23T00:58:29;99943.78;;;13.33;63.21
11499;BME280;5806;48.748;9.278;2023-03-23T01:00:56;99941.03;;;13.33;62.77
11499;BME280;5806;48.748;9.278;2023-03-23T01:03:24;99936.11;;;13.32;62.94
11499;BME280;5806;48.748;9.278;2023-03-23T01:05:53;99936.08;;;13.40;62.44
11499;BME280;5806;48.748;9.278;2023-03-23T01:08:22;99936.92;;;13.38;62.60
11499;BME280;5806;48.748;9.278;2023-03-23T01:10:50;99948.48;;;13.30;63.31
11499;BME280;5806;48.748;9.278;2023-03-23T01:13:18;99936.09;;;13.35;63.08
11499;BME280;5806;48.748;9.278;2023-03-23T01:15:46;99941.34;;;13.24;63.95
11499;BME280;5806;48.748;9.278;2023-03-23T01:18:13;99950.41;;;13.17;64.35
11499;BME280;5806;48.748;9.278;2023-03-23T01:20:41;99932.30;;;13.13;64.78
11499;BME280;5806;48.748;9.278;2023-03-23T01:23:08;99932.04;;;13.12;65.09
11499;BME280;5806;48.748;9.278;2023-03-23T01:25:36;99930.11;;;13.10;64.87
11499;BME280;5806;48.748;9.278;2023-03-23T01:28:04;99936.14;;;13.17;64.43
11499;BME280;5806;48.748;9.278;2023-03-23T01:30:31;99918.30;;;13.15;64.89
11499;BME280;5806;48.748;9.278;2023-03-23T01:32:59;99925.17;;;13.12;64.62
11499;BME280;5806;48.748;9.278;2023-03-23T01:35:26;99921.61;;;13.09;65.00
11499;BME280;5806;48.748;9.278;2023-03-23T01:37:54;99910.92;;;13.03;65.04
11499;BME280;5806;48.748;9.278;2023-03-23T01:40:21;99912.29;;;13.03;65.05
11499;BME280;5806;48.748;9.278;2023-03-23T01:42:49;99910.34;;;12.96;66.10
11499;BME280;5806;48.748;9.278;2023-03-23T01:45:30;99920.24;;;13.07;65.21
11499;BME280;5806;48.748;9.278;2023-03-23T01:48:07;99918.59;;;13.01;65.72
11499;BME280;5806;48.748;9.278;2023-03-23T01:51:21;99922.16;;;12.94;66.92
11499;BME280;5806;48.748;9.278;2023-03-23T01:53:07;99922.45;;;12.77;68.70
11499;BME280;5806;48.748;9.278;2023-03-23T01:55:36;99913.12;;;12.56;70.83
11499;BME280;5806;48.748;9.278;2023-03-23T01:58:05;99902.97;;;12.64;70.87
11499;BME280;5806;48.748;9.278;2023-03-23T02:00:33;99912.58;;;12.41;72.40
11499;BME280;5806;48.748;9.278;2023-03-23T02:03:01;99910.93;;;12.45;72.24
11499;BME280;5806;48.748;9.278;2023-03-23T02:05:35;99903.25;;;12.40;72.88
11499;BME280;5806;48.748;9.278;2023-03-23T02:08:03;99904.08;;;12.40;73.65
11499;BME280;5806;48.748;9.278;2023-03-23T02:10:33;99918.61;;;12.28;74.50
11499;BME280;5806;48.748;9.278;2023-03-23T02:13:03;99921.05;;;12.20;74.06
11499;BME280;5806;48.748;9.278;2023-03-23T02:15:39;99903.52;;;12.28;73.85
11499;BME280;5806;48.748;9.278;2023-03-23T02:18:07;99900.79;;;12.23;74.41
11499;BME280;5806;48.748;9.278;2023-03-23T02:23:30;99933.34;;;12.02;75.90
11499;BME280;5806;48.748;9.278;2023-03-23T02:26:07;99902.70;;;12.13;74.96
11499;BME280;5806;48.748;9.278;2023-03-23T02:34:20;99884.31;;;12.16;74.94
11499;BME280;5806;48.748;9.278;2023-03-23T02:36:55;99868.97;;;12.20;74.85
11499;BME280;5806;48.748;9.278;2023-03-23T02:39:29;99860.98;;;11.98;75.78
11499;BME280;5806;48.748;9.278;2023-03-23T02:42:01;99845.65;;;11.95;75.34
11499;BME280;5806;48.748;9.278;2023-03-23T02:44:29;99843.45;;;11.92;75.72
11499;BME280;5806;48.748;9.278;2023-03-23T02:46:59;99821.27;;;11.83;75.77
11499;BME280;5806;48.748;9.278;2023-03-23T02:49:29;99831.95;;;11.95;75.58
11499;BME280;5806;48.748;9.278;2023-03-23T02:51:59;99827.01;;;11.82;75.60
11499;BME280;5806;48.748;9.278;2023-03-23T02:54:29;99840.70;;;11.87;75.94
11499;BME280;5806;48.748;9.278;2023-03-23T02:56:58;99840.14;;;11.77;75.78
11499;BME280;5806;48.748;9.278;2023-03-23T02:59:25;99845.92;;;11.86;74.90
11499;BME280;5806;48.748;9.278;2023-03-23T03:02:01;99851.40;;;11.86;75.09
11499;BME280;5806;48.748;9.278;2023-03-23T03:04:30;99851.94;;;11.85;74.77
11499;BME280;5806;48.748;9.278;2023-03-23T03:09:42;99851.13;;;11.90;74.63
11499;BME280;5806;48.748;9.278;2023-03-23T03:15:54;99849.52;;;12.09;73.39
11499;BME280;5806;48.748;9.278;2023-03-23T03:17:29;99835.77;;;11.86;73.64
11499;BME280;5806;48.748;9.278;2023-03-23T03:20:01;99835.25;;;12.02;72.67
11499;BME280;5806;48.748;9.278;2023-03-23T03:22:38;99832.78;;;12.00;72.77
11499;BME280;5806;48.748;9.278;2023-03-23T03:25:09;99845.11;;;12.08;72.55
11499;BME280;5806;48.748;9.278;2023-03-23T03:27:40;99849.52;;;12.16;71.54
11499;BME280;5806;48.748;9.278;2023-03-23T03:30:10;99842.39;;;12.15;71.66
11499;BME280;5806;48.748;9.278;2023-03-23T03:32:42;99841.27;;;12.06;71.74
11499;BME280;5806;48.748;9.278;2023-03-23T03:35:10;99856.64;;;12.10;71.70
11499;BME280;5806;48.748;9.278;2023-03-23T03:37:39;99861.55;;;12.10;71.25
11499;BME280;5806;48.748;9.278;2023-03-23T03:40:09;99855.53;;;12.13;71.16
11499;BME280;5806;48.748;9.278;2023-03-23T03:42:39;99855.26;;;12.20;71.33
11499;BME280;5806;48.748;9.278;2023-03-23T03:45:09;99857.73;;;12.09;70.93
11499;BME280;5806;48.748;9.278;2023-03-23T03:47:37;99862.38;;;12.18;70.50
11499;BME280;5806;48.748;9.278;2023-03-23T03:50:06;99861.01;;;12.16;70.44
11499;BME280;5806;48.748;9.278;2023-03-23T03:52:33;99865.39;;;12.12;70.89
11499;BME280;5806;48.748;9.278;2023-03-23T03:55:01;99868.97;;;12.15;70.88
11499;BME280;5806;48.748;9.278;2023-03-23T03:57:29;99876.66;;;12.13;71.04
11499;BME280;5806;48.748;9.278;2023-03-23T03:59:57;99874.98;;;12.12;70.76
11499;BME280;5806;48.748;9.278;2023-03-23T04:02:24;99873.08;;;12.05;71.07
11499;BME280;5806;48.748;9.278;2023-03-23T04:04:52;99871.71;;;12.10;70.21
11499;BME280;5806;48.748;9.278;2023-03-23T04:07:19;99855.53;;;12.13;70.17
11499;BME280;5806;48.748;9.278;2023-03-23T04:09:47;99869.23;;;12.18;70.64
11499;BME280;5806;48.748;9.278;2023-03-23T04:12:16;99866.49;;;12.18;70.76
11499;BME280;5806;48.748;9.278;2023-03-23T04:14:43;99867.86;;;12.18;70.20
11499;BME280;5806;48.748;9.278;2023-03-23T04:17:11;99870.06;;;12.24;70.08
11499;BME280;5806;48.748;9.278;2023-03-23T04:19:40;99863.75;;;12.18;70.34
11499;BME280;5806;48.748;9.278;2023-03-23T04:22:08;99873.91;;;12.20;69.62
11499;BME280;5806;48.748;9.278;2023-03-23T04:24:35;99866.22;;;12.25;70.10
11499;BME280;5806;48.748;9.278;2023-03-23T04:27:03;99868.44;;;12.13;69.89
11499;BME280;5806;48.748;9.278;2023-03-23T04:29:31;99861.28;;;12.14;70.45
11499;BME280;5806;48.748;9.278;2023-03-23T04:32:00;99871.70;;;12.12;69.96
11499;BME280;5806;48.748;9.278;2023-03-23T04:34:28;99866.23;;;12.15;70.20
11499;BME280;5806;48.748;9.278;2023-03-23T04:36:57;99871.44;;;12.19;69.79
11499;BME280;5806;48.748;9.278;2023-03-23T04:39:25;99871.97;;;12.18;70.16
11499;BME280;5806;48.748;9.278;2023-03-23T04:41:54;99868.13;;;12.14;70.12
11499;BME280;5806;48.748;9.278;2023-03-23T04:44:21;99863.75;;;12.16;69.87
11499;BME280;5806;48.748;9.278;2023-03-23T04:46:49;99878.02;;;12.23;69.84
11499;BME280;5806;48.748;9.278;2023-03-23T04:49:17;99872.80;;;12.26;69.83
11499;BME280;5806;48.748;9.278;2023-03-23T04:51:48;99879.38;;;12.28;69.91
11499;BME280;5806;48.748;9.278;2023-03-23T04:54:16;99881.85;;;12.34;69.44
11499;BME280;5806;48.748;9.278;2023-03-23T04:56:44;99873.91;;;12.28;69.38
11499;BME280;5806;48.748;9.278;2023-03-23T04:59:11;99882.69;;;12.32;69.61
11499;BME280;5806;48.748;9.278;2023-03-23T05:01:40;99876.11;;;12.28;69.67
11499;BME280;5806;48.748;9.278;2023-03-23T05:04:10;99875.54;;;12.29;69.82
11499;BME280;5806;48.748;9.278;2023-03-23T05:06:39;99869.78;;;12.33;69.67
11499;BME280;5806;48.748;9.278;2023-03-23T05:09:08;99875.00;;;12.29;69.83
11499;BME280;5806;48.748;9.278;2023-03-23T05:11:36;99879.11;;;12.32;70.13
11499;BME280;5806;48.748;9.278;2023-03-23T05:14:06;99878.31;;;12.34;69.60
11499;BME280;5806;48.748;9.278;2023-03-23T05:16:34;99887.34;;;12.32;69.98
11499;BME280;5806;48.748;9.278;2023-03-23T05:19:05;99885.16;;;12.34;69.74
11499;BME280;5806;48.748;9.278;2023-03-23T05:21:34;99888.17;;;12.30;69.79
11499;BME280;5806;48.748;9.278;2023-03-23T05:24:01;99883.80;;;12.31;69.68
11499;BME280;5806;48.748;9.278;2023-03-23T05:26:29;99885.44;;;12.27;70.10
11499;BME280;5806;48.748;9.278;2023-03-23T05:28:56;99888.98;;;12.25;69.76
11499;BME280;5806;48.748;9.278;2023-03-23T05:31:25;99883.50;;;12.25;70.25
11499;BME280;5806;48.748;9.278;2023-03-23T05:33:53;99880.48;;;12.29;69.78
11499;BME280;5806;48.748;9.278;2023-03-23T05:36:20;99885.71;;;12.23;70.01
11499;BME280;5806;48.748;9.278;2023-03-23T05:38:51;99892.27;;;12.25;69.72
11499;BME280;5806;48.748;9.278;2023-03-23T05:41:18;99892.56;;;12.23;69.83
11499;BME280;5806;48.748;9.278;2023-03-23T05:43:45;99891.47;;;12.42;69.22
11499;BME280;5806;48.748;9.278;2023-03-23T05:46:13;99897.50;;;12.31;69.66
11499;BME280;5806;48.748;9.278;2023-03-23T05:48:41;99893.09;;;12.25;69.92
11499;BME280;5806;48.748;9.278;2023-03-23T05:51:08;99900.22;;;12.24;69.86
11499;BME280;5806;48.748;9.278;2023-03-23T05:53:36;99893.09;;;12.28;69.45
11499;BME280;5806;48.748;9.278;2023-03-23T05:56:04;99897.77;;;12.32;69.40
11499;BME280;5806;48.748;9.278;2023-03-23T05:58:33;99893.09;;;12.33;69.49
11499;BME280;5806;48.748;9.278;2023-03-23T06:01:00;99891.19;;;12.31;69.90
11499;BME280;5806;48.748;9.278;2023-03-23T06:03:29;99890.08;;;12.34;69.76
11499;BME280;5806;48.748;9.278;2023-03-23T06:05:56;99893.66;;;12.32;69.82
11499;BME280;5806;48.748;9.278;2023-03-23T06:08:25;99901.61;;;12.34;69.72
11499;BME280;5806;48.748;9.278;2023-03-23T06:10:52;99900.23;;;12.36;69.24
11499;BME280;5806;48.748;9.278;2023-03-23T06:13:20;99899.67;;;12.34;69.22
11499;BME280;5806;48.748;9.278;2023-03-23T06:15:47;99900.24;;;12.34;69.38
11499;BME280;5806;48.748;9.278;2023-03-23T06:18:15;99909.30;;;12.39;69.14
11499;BME280;5806;48.748;9.278;2023-03-23T06:20:43;99919.97;;;12.33;69.36
11499;BME280;5806;48.748;9.278;2023-03-23T06:23:11;99916.13;;;12.37;68.96
11499;BME280;5806;48.748;9.278;2023-03-23T06:25:40;99915.86;;;12.38;68.93
11499;BME280;5806;48.748;9.278;2023-03-23T06:28:07;99915.32;;;12.39;67.97
11499;BME280;5806;48.748;9.278;2023-03-23T06:30:36;99918.88;;;12.49;67.61
11499;BME280;5806;48.748;9.278;2023-03-23T06:33:04;99932.33;;;12.48;68.56
11499;BME280;5806;48.748;9.278;2023-03-23T06:35:32;99937.28;;;12.54;67.79
11499;BME280;5806;48.748;9.278;2023-03-23T06:37:59;99921.09;;;12.50;67.92
11499;BME280;5806;48.748;9.278;2023-03-23T06:40:28;99919.16;;;12.50;68.38
11499;BME280;5806;48.748;9.278;2023-03-23T06:42:57;99930.70;;;12.47;67.95
11499;BME280;5806;48.748;9.278;2023-03-23T06:45:25;99926.28;;;12.49;67.87
11499;BME280;5806;48.748;9.278;2023-03-23T06:47:53;99922.72;;;12.58;66.96
11499;BME280;5806;48.748;9.278;2023-03-23T06:50:20;99927.41;;;12.58;67.10
11499;BME280;5806;48.748;9.278;2023-03-23T06:52:49;99929.60;;;12.63;66.62
11499;BME280;5806;48.748;9.278;2023-03-23T06:55:17;99928.23;;;12.63;66.39
11499;BME280;5806;48.748;9.278;2023-03-23T06:57:45;99929.86;;;12.72;66.42
11499;BME280;5806;48.748;9.278;2023-03-23T07:00:13;99931.23;;;12.72;66.11
11499;BME280;5806;48.748;9.278;2023-03-23T07:02:41;99940.83;;;12.72;65.74
11499;BME280;5806;48.748;9.278;2023-03-23T07:05:10;99948.78;;;12.78;64.69
11499;BME280;5806;48.748;9.278;2023-03-23T07:07:39;99943.56;;;12.77;65.36
11499;BME280;5806;48.748;9.278;2023-03-23T07:10:10;99940.28;;;12.75;65.25
11499;BME280;5806;48.748;9.278;2023-03-23T07:12:38;99949.63;;;12.71;65.20
11499;BME280;5806;48.748;9.278;2023-03-23T07:15:07;99951.24;;;12.85;63.45
11499;BME280;5806;48.748;9.278;2023-03-23T07:17:40;99947.69;;;12.87;63.65
11499;BME280;5806;48.748;9.278;2023-03-23T07:20:08;99950.44;;;12.82;64.54
11499;BME280;5806;48.748;9.278;2023-03-23T07:22:35;99947.68;;;12.89;63.56
11499;BME280;5806;48.748;9.278;2023-03-23T07:25:04;99944.92;;;12.94;63.59
11499;BME280;5806;48.748;9.278;2023-03-23T07:27:32;99950.41;;;12.97;63.05
11499;BME280;5806;48.748;9.278;2023-03-23T07:29:59;99949.36;;;13.00;63.13
11499;BME280;5806;48.748;9.278;2023-03-23T07:32:27;99954.83;;;13.05;63.20
11499;BME280;5806;48.748;9.278;2023-03-23T07:34:54;99956.22;;;13.00;63.05
11499;BME280;5806;48.748;9.278;2023-03-23T07:37:23;99955.93;;;13.07;62.44
11499;BME280;5806;48.748;9.278;2023-03-23T07:39:50;99945.20;;;13.10;62.20
11499;BME280;5806;48.748;9.278;2023-03-23T07:42:18;99946.85;;;13.09;63.05
11499;BME280;5806;48.748;9.278;2023-03-23T07:44:45;99950.41;;;13.17;61.71
11499;BME280;5806;48.748;9.278;2023-03-23T07:47:12;99954.28;;;13.08;62.41
11499;BME280;5806;48.748;9.278;2023-03-23T07:49:40;99959.50;;;13.12;62.01
11499;BME280;5806;48.748;9.278;2023-03-23T07:52:08;99949.59;;;13.11;61.38
11499;BME280;5806;48.748;9.278;2023-03-23T07:54:37;99958.66;;;13.12;61.62
11499;BME280;5806;48.748;9.278;2023-03-23T07:57:04;99956.98;;;13.21;61.67
11499;BME280;5806;48.748;9.278;2023-03-23T07:59:32;99956.98;;;13.23;61.56
11499;BME280;5806;48.748;9.278;2023-03-23T08:02:00;99952.88;;;13.26;60.67
11499;BME280;5806;48.748;9.278;2023-03-23T08:04:27;99946.56;;;13.23;60.92
11499;BME280;5806;48.748;9.278;2023-03-23T08:06:55;99945.47;;;13.21;60.81
11499;BME280;5806;48.748;9.278;2023-03-23T08:09:22;99953.96;;;13.32;60.72
11499;BME280;5806;48.748;9.278;2023-03-23T08:11:50;99949.56;;;13.34;60.06
11499;BME280;5806;48.748;9.278;2023-03-23T08:14:18;99952.56;;;13.37;59.64
11499;BME280;5806;48.748;9.278;2023-03-23T08:16:46;99944.59;;;13.38;60.52
11499;BME280;5806;48.748;9.278;2023-03-23T08:19:14;99953.39;;;13.40;61.12
11499;BME280;5806;48.748;9.278;2023-03-23T08:21:41;99947.60;;;13.39;60.38
11499;BME280;5806;48.748;9.278;2023-03-23T08:24:09;99944.86;;;13.44;60.27
11499;BME280;5806;48.748;9.278;2023-03-23T08:26:37;99954.73;;;13.48;59.99
11499;BME280;5806;48.748;9.278;2023-03-23T08:29:04;99957.72;;;13.54;58.98
11499;BME280;5806;48.748;9.278;2023-03-23T08:31:32;99949.20;;;13.55;58.78
11499;BME280;5806;48.748;9.278;2023-03-23T08:34:04;99945.65;;;13.55;59.83
11499;BME280;5806;48.748;9.278;2023-03-23T08:36:35;99952.53;;;13.52;59.51
11499;BME280;5806;48.748;9.278;2023-03-23T08:39:04;99951.93;;;13.58;59.36
11499;BME280;5806;48.748;9.278;2023-03-23T08:41:32;99957.16;;;13.59;58.80
11499;BME280;5806;48.748;9.278;2023-03-23T08:43:59;99955.78;;;13.59;58.75
11499;BME280;5806;48.748;9.278;2023-03-23T08:46:28;99956.63;;;13.57;59.50
11499;BME280;5806;48.748;9.278;2023-03-23T08:48:55;99962.66;;;13.64;58.98
11499;BME280;5806;48.748;9.278;2023-03-23T08:51:22;99959.59;;;13.66;58.42
11499;BME280;5806;48.748;9.278;2023-03-23T08:53:50;99955.19;;;13.70;58.31
11499;BME280;5806;48.748;9.278;2023-03-23T08:56:19;99954.89;;;13.74;58.31
11499;BME280;5806;48.748;9.278;2023-03-23T08:58:46;99961.77;;;13.71;58.82
11499;BME280;5806;48.748;9.278;2023-03-23T09:01:14;99971.67;;;13.75;57.71
11499;BME280;5806;48.748;9.278;2023-03-23T09:03:41;99971.40;;;13.76;57.47
11499;BME280;5806;48.748;9.278;2023-03-23T09:06:09;99976.63;;;13.70;58.36
11499;BME280;5806;48.748;9.278;2023-03-23T09:08:39;99982.41;;;13.66;58.83
11499;BME280;5806;48.748;9.278;2023-03-23T09:11:08;99982.69;;;13.65;57.63
11499;BME280;5806;48.748;9.278;2023-03-23T09:13:37;99990.94;;;13.65;58.09
11499;BME280;5806;48.748;9.278;2023-03-23T09:16:05;99991.48;;;13.62;58.19
11499;BME280;5806;48.748;9.278;2023-03-23T09:18:33;99993.42;;;13.64;58.27
11499;BME280;5806;48.748;9.278;2023-03-23T09:21:03;99988.73;;;13.69;58.06
11499;BME280;5806;48.748;9.278;2023-03-23T09:23:31;99985.70;;;13.73;58.18
11499;BME280;5806;48.748;9.278;2023-03-23T09:26:03;99990.05;;;13.84;58.20
11499;BME280;5806;48.748;9.278;2023-03-23T09:28:30;99990.88;;;13.82;57.48
11499;BME280;5806;48.748;9.278;2023-03-23T09:30:58;99985.41;;;13.77;57.93
11499;BME280;5806;48.748;9.278;2023-03-23T09:33:26;99977.69;;;13.84;57.26
11499;BME280;5806;48.748;9.278;2023-03-23T09:35:56;99985.63;;;13.91;57.78
11499;BME280;5806;48.748;9.278;2023-03-23T09:38:23;99978.72;;;13.96;57.25
11499;BME280;5806;48.748;9.278;2023-03-23T09:46:55;99985.53;;;14.06;56.42
11499;BME280;5806;48.748;9.278;2023-03-23T09:49:28;100005.08;;;14.02;57.13
11499;BME280;5806;48.748;9.278;2023-03-23T09:52:00;100007.59;;;13.96;56.53
11499;BME280;5806;48.748;9.278;2023-03-23T09:57:00;100007.63;;;13.91;56.79
11499;BME280;5806;48.748;9.278;2023-03-23T09:59:30;100004.87;;;13.86;56.29
11499;BME280;5806;48.748;9.278;2023-03-23T10:02:11;100008.98;;;13.93;56.22
11499;BME280;5806;48.748;9.278;2023-03-23T10:04:43;100001.33;;;13.83;57.24
11499;BME280;5806;48.748;9.278;2023-03-23T10:07:14;100002.72;;;13.80;56.20
11499;BME280;5806;48.748;9.278;2023-03-23T10:09:45;100008.20;;;13.83;56.24
11499;BME280;5806;48.748;9.278;2023-03-23T10:12:21;100001.04;;;13.87;55.90
11499;BME280;5806;48.748;9.278;2023-03-23T10:17:59;100005.69;;;13.89;55.39
11499;BME280;5806;48.748;9.278;2023-03-23T10:28:39;100007.84;;;13.99;55.58
11499;BME280;5806;48.748;9.278;2023-03-23T10:31:10;100007.83;;;14.02;56.63
11499;BME280;5806;48.748;9.278;2023-03-23T10:33:40;100004.01;;;14.00;56.75
11499;BME280;5806;48.748;9.278;2023-03-23T10:36:22;100005.91;;;14.02;56.52
11499;BME280;5806;48.748;9.278;2023-03-23T10:39:02;99996.02;;;14.01;56.93
11499;BME280;5806;48.748;9.278;2023-03-23T10:41:30;99994.40;;;13.93;57.28
11499;BME280;5806;48.748;9.278;2023-03-23T10:43:58;100005.41;;;13.90;58.06
11499;BME280;5806;48.748;9.278;2023-03-23T10:46:56;100002.40;;;13.89;58.31
11499;BME280;5806;48.748;9.278;2023-03-23T10:49:23;100001.27;;;13.93;58.32
11499;BME280;5806;48.748;9.278;2023-03-23T10:51:53;100010.37;;;13.91;58.82
11499;BME280;5806;48.748;9.278;2023-03-23T10:54:25;100005.95;;;13.95;59.11
11499;BME280;5806;48.748;9.278;2023-03-23T10:56:47;100010.36;;;13.86;59.64
11499;BME280;5806;48.748;9.278;2023-03-23T10:59:27;100004.06;;;13.85;60.19
11499;BME280;5806;48.748;9.278;2023-03-23T11:02:00;100010.63;;;13.92;60.17
11499;BME280;5806;48.748;9.278;2023-03-23T11:04:30;99997.72;;;13.92;60.05
11499;BME280;5806;48.748;9.278;2023-03-23T11:07:01;100013.37;;;13.94;59.93
11499;BME280;5806;48.748;9.278;2023-03-23T11:09:50;100018.84;;;13.99;59.98
11499;BME280;5806;48.748;9.278;2023-03-23T11:12:18;100019.36;;;14.06;60.01
11499;BME280;5806;48.748;9.278;2023-03-23T11:14:46;100010.58;;;14.07;60.44
11499;BME280;5806;48.748;9.278;2023-03-23T11:17:25;100009.17;;;14.12;60.21
11499;BME280;5806;48.748;9.278;2023-03-23T11:19:54;100009.47;;;14.08;60.90
11499;BME280;5806;48.748;9.278;2023-03-23T11:22:31;100009.41;;;14.15;60.77
11499;BME280;5806;48.748;9.278;2023-03-23T11:25:00;100004.77;;;14.13;61.01
11499;BME280;5806;48.748;9.278;2023-03-23T11:27:28;100001.45;;;14.21;60.47
11499;BME280;5806;48.748;9.278;2023-03-23T11:30:07;100004.44;;;14.27;60.31
11499;BME280;5806;48.748;9.278;2023-03-23T11:32:30;99996.45;;;14.31;60.14
11499;BME280;5806;48.748;9.278;2023-03-23T11:35:00;99990.64;;;14.32;60.26
11499;BME280;5806;48.748;9.278;2023-03-23T11:37:45;99994.77;;;14.32;60.60
11499;BME280;5806;48.748;9.278;2023-03-23T11:40:18;99993.19;;;14.19;61.14
11499;BME280;5806;48.748;9.278;2023-03-23T11:42:48;99988.80;;;14.23;60.19
11499;BME280;5806;48.748;9.278;2023-03-23T11:45:34;99976.64;;;14.29;60.39
11499;BME280;5806;48.748;9.278;2023-03-23T11:51:06;99981.02;;;14.32;60.51
11499;BME280;5806;48.748;9.278;2023-03-23T11:53:45;99985.73;;;14.24;60.24
11499;BME280;5806;48.748;9.278;2023-03-23T11:56:23;99977.75;;;14.20;60.91
11499;BME280;5806;48.748;9.278;2023-03-23T11:58:48;99978.06;;;14.14;60.94
11499;BME280;5806;48.748;9.278;2023-03-23T12:01:23;99978.97;;;14.04;62.38
11499;BME280;5806;48.748;9.278;2023-03-23T12:12:39;99987.52;;;13.95;62.96
11499;BME280;5806;48.748;9.278;2023-03-23T12:20:39;99998.30;;;14.40;61.49
11499;BME280;5806;48.748;9.278;2023-03-23T12:23:31;99997.62;;;14.61;60.69
11499;BME280;5806;48.748;9.278;2023-03-23T12:26:13;99998.71;;;14.62;60.05
11499;BME280;5806;48.748;9.278;2023-03-23T12:32:26;100002.59;;;14.56;60.34
11499;BME280;5806;48.748;9.278;2023-03-23T12:35:11;100003.66;;;14.60;60.25
11499;BME280;5806;48.748;9.278;2023-03-23T12:43:43;99998.15;;;14.65;59.78
11499;BME280;5806;48.748;9.278;2023-03-23T12:46:22;99998.45;;;14.61;60.07
11499;BME280;5806;48.748;9.278;2023-03-23T12:49:16;99984.42;;;14.58;59.88
11499;BME280;5806;48.748;9.278;2023-03-23T12:52:13;99985.02;;;14.55;59.95
11499;BME280;5806;48.748;9.278;2023-03-23T12:54:59;99994.33;;;14.61;59.10
11499;BME280;5806;48.748;9.278;2023-03-23T12:57:53;99983.07;;;14.55;58.06
11499;BME280;5806;48.748;9.278;2023-03-23T13:00:26;99993.77;;;14.59;58.50
11499;BME280;5806;48.748;9.278;2023-03-23T13:03:16;99993.75;;;14.62;57.67
11499;BME280;5806;48.748;9.278;2023-03-23T13:05:55;99998.77;;;14.52;58.50
11499;BME280;5806;48.748;9.278;2023-03-23T13:08:41;99996.89;;;14.48;58.96
11499;BME280;5806;48.748;9.278;2023-03-23T13:11:18;100005.05;;;14.63;58.14
11499;BME280;5806;48.748;9.278;2023-03-23T13:13:53;100013.30;;;14.60;58.04
11499;BME280;5806;48.748;9.278;2023-03-23T13:16:38;100012.12;;;14.71;57.35
11499;BME280;5806;48.748;9.278;2023-03-23T13:19:35;100007.20;;;14.71;56.98
11499;BME280;5806;48.748;9.278;2023-03-23T13:22:23;100006.02;;;14.79;57.05
11499;BME280;5806;48.748;9.278;2023-03-23T13:24:55;100000.86;;;14.70;57.78
11499;BME280;5806;48.748;9.278;2023-03-23T13:27:32;99982.16;;;14.67;57.48
11499;BME280;5806;48.748;9.278;2023-03-23T13:30:16;99978.87;;;14.65;58.38
11499;BME280;5806;48.748;9.278;2023-03-23T13:35:22;99986.55;;;14.71;57.32
11499;BME280;5806;48.748;9.278;2023-03-23T13:37:52;99990.16;;;14.66;58.29
11499;BME280;5806;48.748;9.278;2023-03-23T13:40:29;99992.03;;;14.73;57.37
11499;BME280;5806;48.748;9.278;2023-03-23T13:42:59;99996.98;;;14.71;57.79
11499;BME280;5806;48.748;9.278;2023-03-23T13:48:17;100007.91;;;14.84;56.20
11499;BME280;5806;48.748;9.278;2023-03-23T13:50:49;100023.66;;;14.76;56.38
11499;BME280;5806;48.748;9.278;2023-03-23T13:53:20;100015.95;;;14.75;55.93
11499;BME280;5806;48.748;9.278;2023-03-23T13:55:49;100016.56;;;14.67;56.51
11499;BME280;5806;48.748;9.278;2023-03-23T13:58:24;100018.48;;;14.69;56.77
11499;BME280;5806;48.748;9.278;2023-03-23T14:01:19;100018.52;;;14.62;57.68
11499;BME280;5806;48.748;9.278;2023-03-23T14:03:49;100014.16;;;14.58;57.96
11499;BME280;5806;48.748;9.278;2023-03-23T14:06:21;100027.50;;;14.75;56.88
11499;BME280;5806;48.748;9.278;2023-03-23T14:09:03;100031.63;;;14.75;57.31
11499;BME280;5806;48.748;9.278;2023-03-23T14:11:28;100024.77;;;14.72;57.73
11499;BME280;5806;48.748;9.278;2023-03-23T14:14:06;100023.39;;;14.72;57.77
11499;BME280;5806;48.748;9.278;2023-03-23T14:16:44;100020.36;;;14.74;57.86
11499;BME280;5806;48.748;9.278;2023-03-23T14:19:29;100011.19;;;14.86;57.71
11499;BME280;5806;48.748;9.278;2023-03-23T14:22:00;100016.45;;;14.83;58.11
11499;BME280;5806;48.748;9.278;2023-03-23T14:24:31;100003.02;;;14.76;57.97
11499;BME280;5806;48.748;9.278;2023-03-23T14:27:13;100000.50;;;14.79;58.09
11499;BME280;5806;48.748;9.278;2023-03-23T14:29:32;99998.06;;;14.75;57.95
11499;BME280;5806;48.748;9.278;2023-03-23T14:32:00;99993.14;;;14.70;58.25
11499;BME280;5806;48.748;9.278;2023-03-23T14:34:30;99981.31;;;14.72;58.44